Time;durP1;ratioP1;P1;durP2;ratioP2;P2;SDS_P1;SDS_P2;PMS_P1;PMS_P2;Temp;Humidity;BMP_temperature;BMP_pressure;BME280_temperature;BME280_humidity;BME280_pressure;Samples;Min_cycle;Max_cycle;Signal;HPM_P1;HPM_P2
2021/01/20 00:00:25;;;;;;;4.53;2.63;;;-1.60;99.90;;;;;;2098135;28;20178;-70
2021/01/20 00:01:26;;;;;;;3.33;2.30;;;-1.70;99.90;;;;;;2097336;28;20185;-70
2021/01/20 00:02:26;;;;;;;3.92;2.50;;;-1.70;99.90;;;;;;2097289;28;20191;-70
2021/01/20 00:03:28;;;;;;;4.83;2.70;;;-1.70;99.90;;;;;;2097633;28;20263;-70
2021/01/20 00:04:29;;;;;;;3.83;2.83;;;-1.70;99.90;;;;;;2097328;28;20681;-70
2021/01/20 00:05:29;;;;;;;3.37;2.20;;;-1.80;99.90;;;;;;2089283;28;20183;-70
2021/01/20 00:06:30;;;;;;;4.37;2.77;;;-1.70;99.90;;;;;;2088901;28;20257;-70
2021/01/20 00:07:31;;;;;;;3.93;2.50;;;-1.70;99.90;;;;;;2089100;28;20175;-70
2021/01/20 00:08:31;;;;;;;3.43;2.63;;;-1.70;99.90;;;;;;2097758;28;20181;-70
2021/01/20 00:09:32;;;;;;;4.37;2.60;;;-1.70;99.90;;;;;;2097104;28;20268;-70
2021/01/20 00:10:33;;;;;;;3.87;2.43;;;-1.70;99.90;;;;;;2097256;28;20174;-70
2021/01/20 00:11:34;;;;;;;4.07;2.10;;;-1.70;99.90;;;;;;2096951;28;20578;-70
2021/01/20 00:12:34;;;;;;;3.40;2.30;;;-1.70;99.90;;;;;;2097316;28;20217;-69
2021/01/20 00:13:35;;;;;;;4.50;2.27;;;-1.80;99.90;;;;;;2097220;28;20257;-70
2021/01/20 00:14:36;;;;;;;3.57;2.50;;;-1.80;99.90;;;;;;2097593;28;20416;-70
2021/01/20 00:15:36;;;;;;;3.13;2.27;;;-1.80;99.90;;;;;;2097868;28;20264;-69
2021/01/20 00:16:37;;;;;;;2.63;2.20;;;-1.70;99.90;;;;;;2097833;28;20209;-70
2021/01/20 00:17:38;;;;;;;3.10;2.10;;;-1.80;99.90;;;;;;2092470;28;20210;-70
2021/01/20 00:18:38;;;;;;;3.43;2.33;;;-1.70;99.90;;;;;;2081085;28;20190;-69
2021/01/20 00:19:39;;;;;;;2.97;1.73;;;-1.70;99.90;;;;;;2072337;28;20180;-70
2021/01/20 00:20:40;;;;;;;2.07;1.70;;;-1.70;99.90;;;;;;2072481;28;20178;-70
2021/01/20 00:21:41;;;;;;;2.53;1.80;;;-1.80;99.90;;;;;;2072212;28;20522;-70
2021/01/20 00:22:46;;;;;;;2.83;1.95;;;-1.80;99.90;;;;;;2072588;28;20720;-70
2021/01/20 00:23:46;;;;;;;3.42;2.05;;;-1.70;99.90;;;;;;2080590;28;20189;-70
2021/01/20 00:24:47;;;;;;;2.97;2.20;;;-1.70;99.90;;;;;;2072471;28;20766;-70
2021/01/20 00:25:48;;;;;;;3.00;2.03;;;-1.70;99.90;;;;;;2072544;28;20274;-70
2021/01/20 00:26:48;;;;;;;3.43;2.30;;;-1.70;99.90;;;;;;2081368;28;20321;-70
2021/01/20 00:27:49;;;;;;;4.30;2.53;;;-1.70;99.90;;;;;;2080781;28;20549;-70
2021/01/20 00:28:50;;;;;;;2.90;2.07;;;-1.70;99.90;;;;;;2080960;28;20174;-70
2021/01/20 00:29:50;;;;;;;3.00;1.93;;;-1.70;99.90;;;;;;2080428;28;20269;-70
2021/01/20 00:30:51;;;;;;;3.70;2.30;;;-1.70;99.90;;;;;;2072622;28;20190;-69
2021/01/20 00:31:52;;;;;;;4.63;2.73;;;-1.70;99.90;;;;;;2064236;28;20599;-69
2021/01/20 00:32:53;;;;;;;3.47;2.40;;;-1.70;99.90;;;;;;2064432;28;20235;-70
2021/01/20 00:33:54;;;;;;;3.50;2.30;;;-1.70;99.90;;;;;;2080533;28;20189;-70
2021/01/20 00:34:55;;;;;;;3.33;2.47;;;-1.70;99.90;;;;;;2081171;28;20539;-70
2021/01/20 00:35:55;;;;;;;3.77;2.30;;;-1.70;99.90;;;;;;2080562;28;20208;-70
2021/01/20 00:36:56;;;;;;;3.50;2.10;;;-1.70;99.90;;;;;;2072291;28;20250;-70
2021/01/20 00:37:57;;;;;;;3.73;2.77;;;-1.70;99.90;;;;;;2080489;28;20259;-70
2021/01/20 00:38:58;;;;;;;2.90;2.30;;;-1.70;99.90;;;;;;2081226;28;20175;-69
2021/01/20 00:39:58;;;;;;;3.70;2.20;;;-1.70;99.90;;;;;;2080467;28;20238;-70
2021/01/20 00:40:59;;;;;;;4.63;2.90;;;-1.70;99.90;;;;;;2080312;28;20207;-70
2021/01/20 00:42:00;;;;;;;3.47;2.53;;;-1.70;99.90;;;;;;2081177;28;20181;-70
2021/01/20 00:43:00;;;;;;;5.27;2.70;;;-1.70;99.90;;;;;;2081200;28;20676;-70
2021/01/20 00:44:01;;;;;;;4.80;2.97;;;-1.70;99.90;;;;;;2080462;28;20222;-70
2021/01/20 00:45:03;;;;;;;4.90;3.30;;;-1.60;99.90;;;;;;2080486;28;20191;-70
2021/01/20 00:46:04;;;;;;;5.68;3.05;;;-1.70;99.90;;;;;;2080306;28;20884;-70
2021/01/20 00:47:05;;;;;;;4.60;3.00;;;-1.70;99.90;;;;;;2080592;28;20261;-70
2021/01/20 00:48:12;;;;;;;3.90;2.67;;;-1.70;99.90;;;;;;2081115;28;20550;-72
2021/01/20 00:49:12;;;;;;;4.05;2.70;;;-1.70;99.90;;;;;;2080491;28;20257;-70
2021/01/20 00:50:13;;;;;;;3.60;2.80;;;-1.80;99.90;;;;;;2080552;28;20234;-71
2021/01/20 00:51:14;;;;;;;3.80;2.90;;;-1.80;99.90;;;;;;2080858;28;20653;-71
2021/01/20 00:52:14;;;;;;;4.60;3.03;;;-1.80;99.90;;;;;;2081232;28;20175;-70
2021/01/20 00:53:15;;;;;;;3.50;2.50;;;-1.70;99.90;;;;;;2082490;28;20652;-71
2021/01/20 00:54:16;;;;;;;4.00;2.93;;;-1.80;99.90;;;;;;2082564;28;20240;-72
2021/01/20 00:55:17;;;;;;;3.37;2.60;;;-1.80;99.90;;;;;;2082251;28;20177;-71
2021/01/20 00:56:17;;;;;;;3.28;2.55;;;-1.80;99.90;;;;;;2074037;28;20192;-71
2021/01/20 00:57:18;;;;;;;5.20;3.10;;;-1.90;99.90;;;;;;2082242;28;20210;-70
2021/01/20 00:58:19;;;;;;;4.20;2.93;;;-1.80;99.90;;;;;;2082702;28;20171;-70
2021/01/20 00:59:19;;;;;;;4.07;2.63;;;-1.80;99.90;;;;;;2082798;28;20176;-71
2021/01/20 01:00:21;;;;;;;4.13;2.47;;;-1.80;99.90;;;;;;2082799;28;20254;-70
2021/01/20 01:01:22;;;;;;;4.25;2.85;;;-1.80;99.90;;;;;;2081732;28;20187;-74
2021/01/20 01:02:23;;;;;;;4.60;2.77;;;-1.80;99.90;;;;;;2082212;28;20623;-70
2021/01/20 01:03:23;;;;;;;4.40;2.83;;;-1.70;99.90;;;;;;2082011;28;20251;-70
2021/01/20 01:04:24;;;;;;;3.50;2.43;;;-1.70;99.90;;;;;;2082126;28;20175;-70
2021/01/20 01:05:25;;;;;;;3.97;2.45;;;-1.70;99.90;;;;;;2073783;28;20176;-70
2021/01/20 01:06:26;;;;;;;3.83;2.60;;;-1.60;99.90;;;;;;2073816;28;20200;-70
2021/01/20 01:07:26;;;;;;;3.30;2.30;;;-1.70;99.90;;;;;;2082469;28;20181;-70
2021/01/20 01:08:27;;;;;;;3.77;2.60;;;-1.70;99.90;;;;;;2082133;28;20263;-70
2021/01/20 01:09:28;;;;;;;3.67;2.37;;;-1.70;99.90;;;;;;2073839;28;20626;-70
2021/01/20 01:10:28;;;;;;;3.53;2.30;;;-1.60;99.90;;;;;;2074010;28;20196;-70
2021/01/20 01:11:31;;;;;;;3.97;2.37;;;-1.60;99.90;;;;;;2081767;28;20180;-70
2021/01/20 01:12:32;;;;;;;4.88;2.53;;;-1.60;99.90;;;;;;2073680;28;20196;-70
2021/01/20 01:13:33;;;;;;;2.93;2.40;;;-1.60;99.90;;;;;;2073912;28;20274;-70
2021/01/20 01:14:34;;;;;;;4.30;2.22;;;-1.60;99.90;;;;;;2082802;28;20178;-70
2021/01/20 01:15:35;;;;;;;2.45;1.85;;;-1.50;99.90;;;;;;2082588;28;20179;-70
2021/01/20 01:16:36;;;;;;;2.13;1.63;;;-1.30;99.90;;;;;;2082065;28;20230;-69
2021/01/20 01:17:37;;;;;;;3.63;1.70;;;-1.20;99.90;;;;;;2073562;28;20241;-70
2021/01/20 01:18:37;;;;;;;2.50;1.50;;;-1.00;99.90;;;;;;2073937;28;20188;-70
2021/01/20 01:19:38;;;;;;;2.20;1.70;;;-0.70;99.90;;;;;;2081872;28;20176;-70
2021/01/20 01:20:39;;;;;;;2.53;1.70;;;-0.60;99.90;;;;;;2082568;28;20737;-70
2021/01/20 01:21:39;;;;;;;2.13;1.50;;;-0.60;99.90;;;;;;2081834;28;20306;-70
2021/01/20 01:22:40;;;;;;;2.43;1.57;;;-0.60;99.90;;;;;;2073717;28;20219;-71
2021/01/20 01:23:41;;;;;;;2.40;1.57;;;-0.60;99.90;;;;;;2073656;28;20884;-70
2021/01/20 01:24:42;;;;;;;2.37;1.30;;;-0.50;99.90;;;;;;2073732;28;20188;-70
2021/01/20 01:25:42;;;;;;;1.47;1.30;;;-0.50;99.90;;;;;;2081905;28;20192;-70
2021/01/20 01:26:43;;;;;;;4.17;1.40;;;-0.30;99.90;;;;;;2082014;28;20197;-72
2021/01/20 01:27:44;;;;;;;2.10;1.53;;;-0.20;99.90;;;;;;2073807;28;20685;-69
2021/01/20 01:28:45;;;;;;;3.83;1.60;;;-0.20;99.90;;;;;;2073492;28;20194;-70
2021/01/20 01:29:46;;;;;;;2.25;1.50;;;-0.20;99.90;;;;;;2073800;28;20201;-70
2021/01/20 01:30:47;;;;;;;1.60;1.25;;;-0.30;99.90;;;;;;2081806;28;20659;-70
2021/01/20 01:31:47;;;;;;;1.90;1.40;;;-0.30;99.90;;;;;;2082453;28;20179;-70
2021/01/20 01:32:48;;;;;;;1.80;1.23;;;-0.20;99.90;;;;;;2082431;28;20267;-69
2021/01/20 01:33:49;;;;;;;1.70;1.10;;;-0.20;99.90;;;;;;2081935;28;20274;-70
2021/01/20 01:34:50;;;;;;;1.87;1.10;;;-0.10;99.90;;;;;;2081914;28;20429;-69
2021/01/20 01:35:50;;;;;;;1.73;1.33;;;0.00;99.90;;;;;;2081880;28;20184;-70
2021/01/20 01:36:51;;;;;;;1.53;1.33;;;0.10;99.90;;;;;;2081561;28;20204;-70
2021/01/20 01:37:52;;;;;;;1.60;1.03;;;0.00;99.90;;;;;;2081720;28;20191;-70
2021/01/20 01:38:53;;;;;;;1.80;1.30;;;-0.10;99.90;;;;;;2073595;28;20175;-70
2021/01/20 01:39:53;;;;;;;2.58;1.38;;;-0.10;99.90;;;;;;2081944;28;20193;-70
2021/01/20 01:40:54;;;;;;;1.30;1.20;;;-0.10;99.90;;;;;;2082372;28;20185;-70
2021/01/20 01:41:55;;;;;;;1.77;1.10;;;-0.10;99.90;;;;;;2082022;28;20223;-70
2021/01/20 01:42:56;;;;;;;1.10;1.00;;;-0.10;99.90;;;;;;2065575;28;20192;-70
2021/01/20 01:43:57;;;;;;;1.23;1.00;;;-0.10;99.90;;;;;;2065853;28;20178;-70
2021/01/20 01:44:58;;;;;;;1.57;0.97;;;-0.10;99.90;;;;;;2081614;28;20231;-70
2021/01/20 01:46:01;;;;;;;1.70;1.20;;;0.00;99.90;;;;;;2081591;28;20181;-70
2021/01/20 01:47:02;;;;;;;1.00;0.90;;;0.10;99.90;;;;;;2073816;28;20622;-70
2021/01/20 01:48:03;;;;;;;1.40;1.00;;;0.10;99.90;;;;;;2073982;28;20196;-70
2021/01/20 01:49:04;;;;;;;0.80;0.77;;;0.10;99.90;;;;;;2081869;28;20220;-70
2021/01/20 01:50:06;;;;;;;1.00;0.90;;;0.10;99.90;;;;;;2081748;28;20431;-69
2021/01/20 01:51:06;;;;;;;1.50;1.05;;;0.10;99.90;;;;;;2073357;28;20668;-69
2021/01/20 01:52:07;;;;;;;1.20;0.90;;;0.10;99.90;;;;;;2081658;28;20204;-69
2021/01/20 01:53:11;;;;;;;0.87;0.80;;;0.20;99.90;;;;;;2081703;28;20647;-70
2021/01/20 01:54:12;;;;;;;0.90;0.80;;;0.20;99.90;;;;;;2073921;28;20178;-70
2021/01/20 01:55:12;;;;;;;1.38;1.05;;;0.10;99.90;;;;;;2073365;28;20184;-70
2021/01/20 01:56:13;;;;;;;1.37;0.90;;;0.10;99.90;;;;;;2081404;28;20193;-70
2021/01/20 01:57:14;;;;;;;1.00;0.90;;;0.00;99.90;;;;;;2081928;28;20240;-70
2021/01/20 01:58:15;;;;;;;1.87;1.00;;;-0.10;99.90;;;;;;2081628;28;20189;-70
2021/01/20 01:59:16;;;;;;;0.93;0.80;;;-0.10;99.90;;;;;;2073402;28;20233;-70
2021/01/20 02:00:17;;;;;;;1.23;0.90;;;-0.30;99.90;;;;;;2073349;28;20180;-70
2021/01/20 02:01:19;;;;;;;0.67;0.67;;;-0.30;99.90;;;;;;2081256;28;20176;-70
2021/01/20 02:02:20;;;;;;;1.13;0.98;;;-0.20;99.90;;;;;;2073296;28;20460;-70
2021/01/20 02:03:21;;;;;;;1.83;0.90;;;-0.20;99.90;;;;;;2073347;28;20176;-70
2021/01/20 02:04:21;;;;;;;1.07;0.63;;;-0.10;99.90;;;;;;2082265;28;20188;-70
2021/01/20 02:05:22;;;;;;;1.20;0.80;;;-0.10;99.90;;;;;;2082139;28;20657;-70
2021/01/20 02:06:23;;;;;;;0.57;0.57;;;0.00;99.90;;;;;;2081876;28;20197;-71
2021/01/20 02:07:27;;;;;;;1.43;0.80;;;0.20;99.90;;;;;;2082153;28;20192;-70
2021/01/20 02:08:28;;;;;;;0.93;0.73;;;0.30;99.90;;;;;;2081597;28;20172;-70
2021/01/20 02:09:29;;;;;;;0.57;0.52;;;0.20;99.90;;;;;;2081526;28;20241;-71
2021/01/20 02:10:30;;;;;;;1.05;0.80;;;0.20;99.90;;;;;;2081796;28;20666;-70
2021/01/20 02:12:20;;;;;;;0.90;0.60;;;0.20;99.90;;;;;;2072943;28;20188;-69
2021/01/20 02:13:47;;;;;;;0.90;0.80;;;0.40;99.90;;;;;;2082017;28;20180;-70
2021/01/20 02:15:14;;;;;;;0.85;0.80;;;0.30;99.90;;;;;;2081614;28;20552;-70
2021/01/20 02:16:38;;;;;;;0.75;0.75;;;0.30;99.90;;;;;;2081646;28;20172;-71
2021/01/20 02:17:53;;;;;;;1.65;1.00;;;0.30;99.90;;;;;;2081332;28;20204;-70
2021/01/20 02:18:56;;;;;;;1.27;0.80;;;0.30;99.90;;;;;;2079290;28;20165;-70
2021/01/20 02:20:30;;;;;;;1.52;1.00;;;0.20;99.90;;;;;;2073527;28;20177;-70
2021/01/20 02:21:33;;;;;;;1.10;0.75;;;0.10;99.90;;;;;;2077479;28;20296;-71
2021/01/20 02:22:42;;;;;;;1.05;0.95;;;0.10;99.90;;;;;;2081237;28;20188;-70
2021/01/20 02:23:44;;;;;;;1.20;0.90;;;0.10;99.90;;;;;;2081605;28;20762;-71
2021/01/20 02:25:05;;;;;;;1.38;1.10;;;0.00;99.90;;;;;;2081226;28;20191;-70
2021/01/20 02:26:15;;;;;;;1.23;1.02;;;-0.10;99.90;;;;;;2081096;28;20165;-70
2021/01/20 02:27:29;;;;;;;1.40;1.10;;;-0.10;99.90;;;;;;2081535;28;20161;-70
2021/01/20 02:28:53;;;;;;;1.23;1.02;;;-0.20;99.90;;;;;;2081423;28;20264;-70
2021/01/20 02:30:13;;;;;;;1.30;1.10;;;-0.30;99.90;;;;;;2048632;29;20698;-70
2021/01/20 02:31:16;;;;;;;1.40;1.23;;;-0.30;99.90;;;;;;2081246;28;20230;-70
2021/01/20 02:32:17;;;;;;;1.80;1.00;;;-0.30;99.90;;;;;;2073521;28;20187;-70
2021/01/20 02:33:22;;;;;;;1.67;1.15;;;-0.40;99.90;;;;;;2064938;28;20295;-69
2021/01/20 02:34:24;;;;;;;1.52;1.00;;;-0.40;99.90;;;;;;2073639;28;20192;-70
2021/01/20 02:35:26;;;;;;;1.58;1.05;;;-0.50;99.90;;;;;;2073326;28;20642;-70
2021/01/20 02:36:30;;;;;;;2.35;1.45;;;-0.50;99.90;;;;;;2081329;28;20208;-70
2021/01/20 02:37:33;;;;;;;1.70;1.10;;;-0.50;99.90;;;;;;2081360;28;20203;-71
2021/01/20 02:38:34;;;;;;;1.73;1.10;;;-0.60;99.90;;;;;;2081172;28;20180;-71
2021/01/20 02:39:37;;;;;;;1.52;1.20;;;-0.60;99.90;;;;;;2081400;28;20571;-70
2021/01/20 02:40:37;;;;;;;1.63;1.20;;;-0.70;99.90;;;;;;2081229;28;20816;-70
2021/01/20 02:41:38;;;;;;;2.10;1.30;;;-0.80;99.90;;;;;;2081213;28;20187;-70
2021/01/20 02:42:46;;;;;;;2.00;1.20;;;-0.90;99.90;;;;;;2081177;28;20207;-70
2021/01/20 02:43:47;;;;;;;2.28;1.25;;;-0.90;99.90;;;;;;2081364;28;20186;-70
2021/01/20 02:44:48;;;;;;;1.23;1.00;;;-0.90;99.90;;;;;;2081961;28;20549;-70
2021/01/20 02:45:49;;;;;;;2.85;1.60;;;-0.90;99.90;;;;;;2081758;28;20266;-70
2021/01/20 02:46:49;;;;;;;3.20;1.30;;;-0.90;99.90;;;;;;2081253;28;20286;-70
2021/01/20 02:47:52;;;;;;;1.30;1.20;;;-0.90;99.90;;;;;;2073014;28;20439;-70
2021/01/20 02:48:54;;;;;;;1.63;1.30;;;-1.00;99.90;;;;;;2057518;28;20189;-70
2021/01/20 02:49:55;;;;;;;1.58;1.30;;;-1.10;99.90;;;;;;2072923;28;20183;-71
2021/01/20 02:50:59;;;;;;;1.90;1.17;;;-1.10;99.90;;;;;;2080971;28;20322;-70
2021/01/20 02:52:13;;;;;;;1.63;1.30;;;-1.20;99.90;;;;;;2081208;28;20223;-70
2021/01/20 02:53:20;;;;;;;1.45;1.05;;;-1.30;99.90;;;;;;2072866;28;20172;-70
2021/01/20 02:54:23;;;;;;;1.23;1.05;;;-1.30;99.90;;;;;;2073984;28;20177;-69
2021/01/20 02:55:27;;;;;;;1.67;1.20;;;-1.40;99.90;;;;;;2080918;28;20180;-69
2021/01/20 02:56:30;;;;;;;2.13;1.33;;;-1.30;99.90;;;;;;2081636;28;20209;-69
2021/01/20 02:57:35;;;;;;;1.40;1.10;;;-1.30;99.90;;;;;;2080765;28;20212;-70
2021/01/20 02:58:38;;;;;;;1.75;1.02;;;-1.40;99.90;;;;;;2073499;28;20574;-70
2021/01/20 02:59:41;;;;;;;1.77;1.10;;;-1.40;99.90;;;;;;2073081;28;20187;-70
2021/01/20 03:00:43;;;;;;;1.45;1.05;;;-1.50;99.90;;;;;;2073162;28;20180;-69
2021/01/20 03:01:50;;;;;;;1.67;1.10;;;-1.50;99.90;;;;;;2072741;28;20183;-69
2021/01/20 03:02:53;;;;;;;1.25;1.15;;;-1.50;99.90;;;;;;2081275;28;20238;-69
2021/01/20 03:04:01;;;;;;;1.40;1.20;;;-1.50;99.90;;;;;;2081073;28;20188;-69
2021/01/20 03:05:03;;;;;;;1.05;0.80;;;-1.50;99.90;;;;;;2082848;28;20282;-69
2021/01/20 03:06:04;;;;;;;1.77;1.00;;;-1.50;99.90;;;;;;2080977;28;20183;-70
2021/01/20 03:07:06;;;;;;;1.35;1.05;;;-1.60;99.90;;;;;;2080905;28;20175;-69
2021/01/20 03:08:07;;;;;;;1.58;1.25;;;-1.60;99.90;;;;;;2081218;28;20226;-69
2021/01/20 03:09:08;;;;;;;1.57;1.20;;;-1.70;99.90;;;;;;2072965;28;20182;-70
2021/01/20 03:10:11;;;;;;;1.50;1.03;;;-1.80;99.90;;;;;;2072983;28;20179;-69
2021/01/20 03:11:12;;;;;;;1.70;1.15;;;-1.80;99.90;;;;;;2080682;28;20200;-69
2021/01/20 03:12:13;;;;;;;1.60;1.10;;;-1.90;99.90;;;;;;2081740;28;20205;-71
2021/01/20 03:13:14;;;;;;;1.37;1.00;;;-1.90;99.90;;;;;;2081659;28;20177;-69
2021/01/20 03:14:17;;;;;;;1.75;1.20;;;-1.90;99.90;;;;;;2081779;28;20206;-69
2021/01/20 03:15:28;;;;;;;2.22;1.15;;;-2.00;99.90;;;;;;2080486;28;20185;-69
2021/01/20 03:16:30;;;;;;;1.40;1.10;;;-2.10;99.90;;;;;;2074065;28;20301;-69
2021/01/20 03:17:32;;;;;;;1.45;1.10;;;-2.10;99.90;;;;;;2072933;28;20233;-69
2021/01/20 03:18:32;;;;;;;1.42;1.25;;;-2.10;99.90;;;;;;2072850;28;20245;-69
2021/01/20 03:19:33;;;;;;;1.10;1.00;;;-2.20;99.90;;;;;;2072983;28;20180;-69
2021/01/20 03:20:35;;;;;;;3.37;1.20;;;-2.20;99.90;;;;;;2072997;28;20241;-69
2021/01/20 03:21:35;;;;;;;2.88;1.38;;;-2.20;99.90;;;;;;2072602;28;20242;-69
2021/01/20 03:22:36;;;;;;;2.20;1.50;;;-2.30;99.90;;;;;;2081124;28;20718;-69
2021/01/20 03:23:37;;;;;;;1.80;1.20;;;-2.30;99.90;;;;;;2081617;28;20187;-69
2021/01/20 03:24:37;;;;;;;2.60;1.40;;;-2.30;99.90;;;;;;2080922;28;20274;-69
2021/01/20 03:25:38;;;;;;;1.83;1.30;;;-2.30;99.90;;;;;;2072803;28;20269;-69
2021/01/20 03:26:39;;;;;;;3.42;1.77;;;-2.30;99.90;;;;;;2080996;28;20554;-69
2021/01/20 03:27:40;;;;;;;3.63;1.80;;;-2.20;99.90;;;;;;2081581;28;20221;-71
2021/01/20 03:28:40;;;;;;;1.77;1.20;;;-2.30;99.90;;;;;;2081573;28;20676;-69
2021/01/20 03:29:42;;;;;;;4.57;2.63;;;-2.30;99.90;;;;;;2081645;28;20191;-69
2021/01/20 03:30:42;;;;;;;4.57;2.63;;;-2.30;99.90;;;;;;2080919;28;20261;-69
2021/01/20 03:31:43;;;;;;;4.17;2.30;;;-2.30;99.90;;;;;;2080840;28;20652;-70
2021/01/20 03:32:44;;;;;;;3.27;1.97;;;-2.30;99.90;;;;;;2081589;28;20175;-69
2021/01/20 03:33:44;;;;;;;2.57;1.40;;;-2.30;99.90;;;;;;2081446;28;20216;-70
2021/01/20 03:34:45;;;;;;;5.47;1.60;;;-2.20;99.90;;;;;;2081581;28;20186;-70
2021/01/20 03:35:46;;;;;;;2.50;1.60;;;-2.00;99.90;;;;;;2080765;28;20186;-69
2021/01/20 03:36:46;;;;;;;2.47;1.70;;;-2.00;99.90;;;;;;2072640;28;20863;-69
2021/01/20 03:37:47;;;;;;;1.73;1.50;;;-1.90;99.90;;;;;;2080745;28;20230;-69
2021/01/20 03:38:48;;;;;;;2.00;1.50;;;-1.90;99.90;;;;;;2080850;28;20224;-70
2021/01/20 03:39:49;;;;;;;2.33;1.60;;;-1.90;99.90;;;;;;2072557;28;20199;-69
2021/01/20 03:40:49;;;;;;;2.38;1.85;;;-2.00;99.90;;;;;;2080728;28;20187;-69
2021/01/20 03:41:50;;;;;;;3.70;2.00;;;-2.00;99.90;;;;;;2081521;28;20248;-69
2021/01/20 03:42:51;;;;;;;3.73;1.87;;;-2.00;99.90;;;;;;2081406;28;20186;-69
2021/01/20 03:43:51;;;;;;;1.67;1.57;;;-2.00;99.90;;;;;;2081287;28;20190;-70
2021/01/20 03:44:52;;;;;;;2.73;1.93;;;-2.00;99.90;;;;;;2081461;28;20649;-70
2021/01/20 03:45:53;;;;;;;2.17;1.93;;;-2.00;99.90;;;;;;2080860;28;20266;-71
2021/01/20 03:46:53;;;;;;;2.50;1.70;;;-2.10;99.90;;;;;;2081233;28;20728;-70
2021/01/20 03:47:54;;;;;;;2.37;1.63;;;-2.10;99.90;;;;;;2081637;28;20228;-70
2021/01/20 03:48:55;;;;;;;2.67;1.60;;;-2.00;99.90;;;;;;2081563;28;20218;-70
2021/01/20 03:49:56;;;;;;;2.80;1.70;;;-2.00;99.90;;;;;;2081187;28;20234;-70
2021/01/20 03:50:56;;;;;;;3.03;1.87;;;-2.00;99.90;;;;;;2080887;28;20176;-70
2021/01/20 03:51:57;;;;;;;1.83;1.60;;;-2.00;99.90;;;;;;2081345;28;20187;-70
2021/01/20 03:52:58;;;;;;;2.00;1.30;;;-2.00;99.90;;;;;;2081308;28;20187;-70
2021/01/20 03:54:00;;;;;;;2.00;1.40;;;-2.10;99.90;;;;;;2081341;28;20186;-70
2021/01/20 03:55:01;;;;;;;2.80;1.30;;;-2.00;99.90;;;;;;2080589;28;20676;-69
2021/01/20 03:56:02;;;;;;;1.67;1.30;;;-2.00;99.90;;;;;;2080526;28;20196;-70
2021/01/20 03:57:04;;;;;;;1.17;1.00;;;-2.00;99.90;;;;;;2081220;28;20248;-70
2021/01/20 03:58:05;;;;;;;1.42;1.08;;;-1.90;99.90;;;;;;2081289;28;20185;-70
2021/01/20 03:59:06;;;;;;;1.50;1.30;;;-1.90;99.90;;;;;;2081262;28;20175;-70
2021/01/20 04:00:07;;;;;;;1.85;1.20;;;-1.90;99.90;;;;;;2080702;28;20197;-69
2021/01/20 04:01:08;;;;;;;1.30;1.00;;;-1.90;99.90;;;;;;2080267;28;20183;-70
2021/01/20 04:02:09;;;;;;;1.53;1.10;;;-1.80;99.90;;;;;;2080741;28;20244;-70
2021/01/20 04:03:09;;;;;;;1.03;0.80;;;-1.80;99.90;;;;;;2064343;28;20182;-70
2021/01/20 04:04:10;;;;;;;1.70;0.97;;;-1.80;99.90;;;;;;2072620;28;20198;-70
2021/01/20 04:05:11;;;;;;;1.20;1.00;;;-1.60;99.90;;;;;;2081015;28;20240;-69
2021/01/20 04:06:12;;;;;;;1.80;1.30;;;-1.60;99.90;;;;;;2081209;28;20270;-70
2021/01/20 04:07:13;;;;;;;1.77;0.90;;;-1.60;99.90;;;;;;2081060;28;20252;-69
2021/01/20 04:08:13;;;;;;;1.00;0.90;;;-1.60;99.90;;;;;;2081364;28;20793;-70
2021/01/20 04:09:14;;;;;;;0.67;0.67;;;-1.50;99.90;;;;;;2081199;28;20219;-70
2021/01/20 04:10:15;;;;;;;1.00;0.90;;;-1.40;99.90;;;;;;2082898;28;20271;-72
2021/01/20 04:11:19;;;;;;;1.00;0.90;;;-1.30;99.90;;;;;;2081055;28;20630;-70
2021/01/20 04:12:19;;;;;;;3.15;1.02;;;-1.30;99.90;;;;;;2072836;28;20183;-70
2021/01/20 04:13:22;;;;;;;1.60;1.13;;;-1.20;99.90;;;;;;2080455;28;20578;-70
2021/01/20 04:14:23;;;;;;;1.45;1.00;;;-1.20;99.90;;;;;;2080523;28;20191;-70
2021/01/20 04:15:24;;;;;;;1.48;1.02;;;-1.20;99.90;;;;;;2080626;28;20211;-70
2021/01/20 04:16:25;;;;;;;1.00;0.90;;;-1.20;99.90;;;;;;2080484;28;20257;-70
2021/01/20 04:17:25;;;;;;;1.10;0.80;;;-1.10;99.90;;;;;;2080367;28;20219;-70
2021/01/20 04:18:26;;;;;;;1.50;0.80;;;-1.00;99.90;;;;;;2080708;28;20222;-70
2021/01/20 04:19:27;;;;;;;2.53;0.77;;;-1.00;99.90;;;;;;2080467;28;20941;-69
2021/01/20 04:20:27;;;;;;;1.07;0.80;;;-1.00;99.90;;;;;;2080572;28;20282;-70
2021/01/20 04:21:29;;;;;;;0.97;0.80;;;-1.00;99.90;;;;;;2080107;28;20180;-70
2021/01/20 04:22:30;;;;;;;1.05;0.80;;;-1.00;99.90;;;;;;2080518;28;20331;-70
2021/01/20 04:23:31;;;;;;;1.20;0.90;;;-1.00;99.90;;;;;;2080478;28;20183;-71
2021/01/20 04:24:31;;;;;;;0.90;0.80;;;-0.90;99.90;;;;;;2081208;28;20183;-70
2021/01/20 04:25:32;;;;;;;1.47;1.00;;;-0.90;99.90;;;;;;2081157;28;20198;-70
2021/01/20 04:26:33;;;;;;;0.80;0.80;;;-1.00;99.90;;;;;;2080231;28;20253;-70
2021/01/20 04:27:33;;;;;;;1.07;0.97;;;-1.00;99.90;;;;;;2071706;28;20327;-70
2021/01/20 04:28:36;;;;;;;1.23;0.90;;;-1.00;99.90;;;;;;2080632;28;20227;-70
2021/01/20 04:29:36;;;;;;;1.05;0.88;;;-1.00;99.90;;;;;;2080401;28;20184;-70
2021/01/20 04:30:37;;;;;;;1.40;0.97;;;-1.00;99.90;;;;;;2080531;28;20532;-70
2021/01/20 04:31:39;;;;;;;1.10;0.77;;;-1.00;99.90;;;;;;2081005;28;20269;-70
2021/01/20 04:32:40;;;;;;;1.20;0.80;;;-1.10;99.90;;;;;;2081150;28;20191;-70
2021/01/20 04:33:40;;;;;;;1.23;0.90;;;-1.00;99.90;;;;;;2081080;28;20188;-70
2021/01/20 04:34:42;;;;;;;1.23;1.10;;;-1.00;99.90;;;;;;2081224;28;20278;-70
2021/01/20 04:35:42;;;;;;;1.95;1.25;;;-1.00;99.90;;;;;;2080423;28;20214;-70
2021/01/20 04:36:43;;;;;;;2.10;1.67;;;-1.00;99.90;;;;;;2080556;28;20209;-70
2021/01/20 04:37:44;;;;;;;2.10;1.60;;;-1.10;99.90;;;;;;2080860;28;20206;-70
2021/01/20 04:38:44;;;;;;;1.83;1.40;;;-1.20;99.90;;;;;;2081123;28;20690;-70
2021/01/20 04:39:45;;;;;;;1.93;1.20;;;-1.20;99.90;;;;;;2081126;28;20175;-70
2021/01/20 04:40:46;;;;;;;2.00;1.47;;;-1.20;99.90;;;;;;2080959;28;20175;-70
2021/01/20 04:41:46;;;;;;;2.03;1.50;;;-1.30;99.90;;;;;;2080298;28;20183;-70
2021/01/20 04:42:47;;;;;;;2.13;1.33;;;-1.30;99.90;;;;;;2080269;28;20261;-69
2021/01/20 04:43:48;;;;;;;1.30;1.20;;;-1.30;99.90;;;;;;2080461;28;20187;-70
2021/01/20 04:44:48;;;;;;;1.40;1.10;;;-1.30;99.90;;;;;;2080451;28;20206;-70
2021/01/20 04:45:49;;;;;;;2.60;1.40;;;-1.40;99.90;;;;;;2080494;28;20203;-70
2021/01/20 04:46:51;;;;;;;2.17;1.37;;;-1.40;99.90;;;;;;2080325;28;20617;-70
2021/01/20 04:47:53;;;;;;;1.95;1.58;;;-1.40;99.90;;;;;;2080389;28;20290;-70
2021/01/20 04:48:55;;;;;;;2.42;1.83;;;-1.40;99.90;;;;;;2064067;28;20202;-70
2021/01/20 04:49:57;;;;;;;2.05;1.30;;;-1.50;99.90;;;;;;2072555;28;20184;-70
2021/01/20 04:51:03;;;;;;;5.60;3.55;;;-1.50;99.90;;;;;;2071923;28;20190;-70
2021/01/20 04:52:06;;;;;;;14.40;9.57;;;-1.50;99.90;;;;;;2072896;28;20171;-70
2021/01/20 04:53:10;;;;;;;7.03;4.70;;;-1.50;99.90;;;;;;2080402;28;20270;-70
2021/01/20 04:54:12;;;;;;;6.55;4.70;;;-1.60;99.90;;;;;;2080459;28;20185;-71
2021/01/20 04:55:16;;;;;;;2.25;1.85;;;-1.60;99.90;;;;;;2080420;28;20198;-70
2021/01/20 04:56:17;;;;;;;7.93;5.15;;;-1.60;99.90;;;;;;2080320;28;20175;-70
2021/01/20 04:57:18;;;;;;;7.88;5.13;;;-1.50;99.90;;;;;;2080182;28;20644;-70
2021/01/20 04:58:19;;;;;;;4.30;2.38;;;-1.50;99.90;;;;;;2080385;28;20180;-70
2021/01/20 04:59:20;;;;;;;2.10;1.60;;;-1.50;99.90;;;;;;2080327;28;20188;-70
2021/01/20 05:00:22;;;;;;;6.47;4.15;;;-1.40;99.90;;;;;;2080518;28;20244;-71
2021/01/20 05:01:24;;;;;;;6.28;4.00;;;-1.40;99.90;;;;;;2080172;28;20272;-70
2021/01/20 05:02:28;;;;;;;28.73;24.48;;;-1.40;99.90;;;;;;2072195;28;20643;-71
2021/01/20 05:03:30;;;;;;;12.27;7.85;;;-1.40;99.90;;;;;;2065216;28;20186;-71
2021/01/20 05:04:31;;;;;;;7.75;6.10;;;-1.30;99.90;;;;;;2072205;28;20176;-70
2021/01/20 05:05:36;;;;;;;7.90;6.25;;;-1.30;99.90;;;;;;2064086;28;20315;-70
2021/01/20 05:06:37;;;;;;;8.68;5.28;;;-1.30;99.90;;;;;;2072641;28;20275;-70
2021/01/20 05:07:37;;;;;;;10.50;6.33;;;-1.30;99.90;;;;;;2080376;28;20199;-70
2021/01/20 05:08:39;;;;;;;9.33;6.17;;;-1.40;99.90;;;;;;2080446;28;20193;-70
2021/01/20 05:09:39;;;;;;;9.63;5.85;;;-1.30;99.90;;;;;;2080237;28;20192;-70
2021/01/20 05:10:41;;;;;;;9.47;4.93;;;-1.30;99.90;;;;;;2072343;28;20223;-71
2021/01/20 05:11:44;;;;;;;6.28;4.00;;;-1.30;99.90;;;;;;2072174;28;20235;-70
2021/01/20 05:12:45;;;;;;;6.47;4.15;;;-1.30;99.90;;;;;;2064321;28;20212;-70
2021/01/20 05:13:46;;;;;;;4.87;2.40;;;-1.30;99.90;;;;;;2072192;28;20275;-70
2021/01/20 05:14:47;;;;;;;4.00;2.63;;;-1.30;99.90;;;;;;2081160;28;20188;-70
2021/01/20 05:15:48;;;;;;;3.27;2.20;;;-1.20;99.90;;;;;;2080700;28;20196;-70
2021/01/20 05:16:52;;;;;;;2.60;1.83;;;-1.10;99.90;;;;;;2081044;28;20206;-70
2021/01/20 05:18:06;;;;;;;2.90;1.95;;;-1.10;99.90;;;;;;2080414;28;20214;-70
2021/01/20 05:19:07;;;;;;;2.00;1.60;;;-1.00;99.90;;;;;;2080554;28;20293;-71
2021/01/20 05:20:35;;;;;;;2.45;1.60;;;-1.00;99.90;;;;;;2080436;28;20188;-70
2021/01/20 05:21:36;;;;;;;3.67;2.17;;;-0.90;99.90;;;;;;2080127;28;20238;-70
2021/01/20 05:22:55;;;;;;;1.83;1.50;;;-0.80;99.90;;;;;;2080490;28;20668;-70
2021/01/20 05:24:20;;;;;;;3.15;2.00;;;-0.80;99.90;;;;;;2080287;28;20718;-71
2021/01/20 05:25:34;;;;;;;3.25;2.00;;;-0.60;99.90;;;;;;2080916;28;20183;-70